sensor_id;sensor_type;location;lat;lon;timestamp;pressure;altitude;pressure_sealevel;temperature;humidity
13867;BME280;7003;46.982;15.248;2022-09-27T00:01:09;95932.59;;;10.22;100.00
13867;BME280;7003;46.982;15.248;2022-09-27T00:03:37;95929.09;;;10.18;100.00
13867;BME280;7003;46.982;15.248;2022-09-27T00:06:07;95928.38;;;10.02;100.00
13867;BME280;7003;46.982;15.248;2022-09-27T00:08:38;95921.97;;;10.03;100.00
13867;BME280;7003;46.982;15.248;2022-09-27T00:11:07;95923.69;;;10.15;100.00
13867;BME280;7003;46.982;15.248;2022-09-27T00:13:39;95915.09;;;10.02;100.00
13867;BME280;7003;46.982;15.248;2022-09-27T00:16:09;95909.22;;;10.12;100.00
13867;BME280;7003;46.982;15.248;2022-09-27T00:18:39;95914.97;;;10.14;100.00
13867;BME280;7003;46.982;15.248;2022-09-27T00:21:08;95906.78;;;10.23;100.00
13867;BME280;7003;46.982;15.248;2022-09-27T00:23:39;95893.22;;;10.09;100.00
13867;BME280;7003;46.982;15.248;2022-09-27T00:26:11;95890.38;;;10.17;100.00
13867;BME280;7003;46.982;15.248;2022-09-27T00:28:42;95896.28;;;10.11;100.00
13867;BME280;7003;46.982;15.248;2022-09-27T00:31:17;95894.31;;;10.08;100.00
13867;BME280;7003;46.982;15.248;2022-09-27T00:33:50;95890.84;;;10.03;100.00
13867;BME280;7003;46.982;15.248;2022-09-27T00:36:19;95891.75;;;10.11;100.00
13867;BME280;7003;46.982;15.248;2022-09-27T00:38:48;95886.13;;;10.16;100.00
13867;BME280;7003;46.982;15.248;2022-09-27T00:41:20;95880.63;;;10.25;100.00
13867;BME280;7003;46.982;15.248;2022-09-27T00:43:54;95880.50;;;10.18;100.00
13867;BME280;7003;46.982;15.248;2022-09-27T00:46:27;95877.34;;;10.12;100.00
13867;BME280;7003;46.982;15.248;2022-09-27T00:49:03;95878.31;;;10.23;100.00
13867;BME280;7003;46.982;15.248;2022-09-27T00:51:35;95871.69;;;10.14;100.00
13867;BME280;7003;46.982;15.248;2022-09-27T00:54:06;95876.44;;;10.24;100.00
13867;BME280;7003;46.982;15.248;2022-09-27T00:56:36;95871.41;;;10.19;100.00
13867;BME280;7003;46.982;15.248;2022-09-27T00:59:08;95874.13;;;10.22;100.00
13867;BME280;7003;46.982;15.248;2022-09-27T01:01:43;95880.09;;;10.38;100.00
13867;BME280;7003;46.982;15.248;2022-09-27T01:04:12;95867.00;;;10.26;100.00
13867;BME280;7003;46.982;15.248;2022-09-27T01:06:41;95865.22;;;10.15;100.00
13867;BME280;7003;46.982;15.248;2022-09-27T01:09:09;95857.06;;;10.23;100.00
13867;BME280;7003;46.982;15.248;2022-09-27T01:11:44;95854.72;;;10.18;100.00
13867;BME280;7003;46.982;15.248;2022-09-27T01:14:28;95845.88;;;10.14;100.00
13867;BME280;7003;46.982;15.248;2022-09-27T01:17:07;95844.69;;;10.12;100.00
13867;BME280;7003;46.982;15.248;2022-09-27T01:19:50;95829.53;;;10.12;100.00
13867;BME280;7003;46.982;15.248;2022-09-27T01:22:27;95823.63;;;10.22;100.00
13867;BME280;7003;46.982;15.248;2022-09-27T01:25:09;95820.75;;;10.31;100.00
13867;BME280;7003;46.982;15.248;2022-09-27T01:28:04;95820.41;;;10.32;100.00
13867;BME280;7003;46.982;15.248;2022-09-27T01:30:46;95819.22;;;10.30;100.00
13867;BME280;7003;46.982;15.248;2022-09-27T01:33:24;95803.56;;;10.48;100.00
13867;BME280;7003;46.982;15.248;2022-09-27T01:36:07;95804.88;;;10.34;100.00
13867;BME280;7003;46.982;15.248;2022-09-27T01:38:46;95806.16;;;10.67;100.00
13867;BME280;7003;46.982;15.248;2022-09-27T01:41:26;95805.44;;;10.47;100.00
13867;BME280;7003;46.982;15.248;2022-09-27T01:44:02;95807.53;;;10.34;100.00
13867;BME280;7003;46.982;15.248;2022-09-27T01:46:36;95806.31;;;10.28;100.00
13867;BME280;7003;46.982;15.248;2022-09-27T01:49:11;95798.03;;;10.33;100.00
13867;BME280;7003;46.982;15.248;2022-09-27T01:51:42;95786.81;;;10.21;100.00
13867;BME280;7003;46.982;15.248;2022-09-27T01:54:18;95782.91;;;10.37;100.00
13867;BME280;7003;46.982;15.248;2022-09-27T01:56:51;95785.38;;;10.50;100.00
13867;BME280;7003;46.982;15.248;2022-09-27T01:59:27;95783.81;;;10.49;100.00
13867;BME280;7003;46.982;15.248;2022-09-27T02:02:03;95782.31;;;10.25;100.00
13867;BME280;7003;46.982;15.248;2022-09-27T02:04:36;95787.19;;;10.23;100.00
13867;BME280;7003;46.982;15.248;2022-09-27T02:07:11;95782.25;;;10.21;100.00
13867;BME280;7003;46.982;15.248;2022-09-27T02:09:47;95785.69;;;10.22;100.00
13867;BME280;7003;46.982;15.248;2022-09-27T02:12:19;95782.38;;;10.28;100.00
13867;BME280;7003;46.982;15.248;2022-09-27T02:14:55;95778.19;;;10.27;100.00
13867;BME280;7003;46.982;15.248;2022-09-27T02:17:30;95777.41;;;10.27;100.00
13867;BME280;7003;46.982;15.248;2022-09-27T02:20:08;95774.41;;;10.28;100.00
13867;BME280;7003;46.982;15.248;2022-09-27T02:22:44;95785.06;;;10.32;100.00
13867;BME280;7003;46.982;15.248;2022-09-27T02:25:20;95783.59;;;10.34;100.00
13867;BME280;7003;46.982;15.248;2022-09-27T02:27:56;95774.56;;;10.39;100.00
13867;BME280;7003;46.982;15.248;2022-09-27T02:30:25;95783.72;;;10.41;100.00
13867;BME280;7003;46.982;15.248;2022-09-27T02:32:54;95787.59;;;10.48;100.00
13867;BME280;7003;46.982;15.248;2022-09-27T02:35:26;95775.41;;;10.43;100.00
13867;BME280;7003;46.982;15.248;2022-09-27T02:37:55;95770.44;;;10.41;100.00
13867;BME280;7003;46.982;15.248;2022-09-27T02:40:24;95765.41;;;10.36;100.00
13867;BME280;7003;46.982;15.248;2022-09-27T02:42:56;95767.97;;;10.29;100.00
13867;BME280;7003;46.982;15.248;2022-09-27T02:45:28;95776.88;;;10.40;100.00
13867;BME280;7003;46.982;15.248;2022-09-27T02:48:08;95767.84;;;10.45;100.00
13867;BME280;7003;46.982;15.248;2022-09-27T02:50:57;95760.50;;;10.38;100.00
13867;BME280;7003;46.982;15.248;2022-09-27T02:53:37;95750.38;;;10.48;100.00
13867;BME280;7003;46.982;15.248;2022-09-27T02:56:13;95754.94;;;10.47;100.00
13867;BME280;7003;46.982;15.248;2022-09-27T02:58:51;95745.91;;;10.52;100.00
13867;BME280;7003;46.982;15.248;2022-09-27T03:01:27;95742.13;;;10.53;100.00
13867;BME280;7003;46.982;15.248;2022-09-27T03:04:06;95739.84;;;10.55;100.00
13867;BME280;7003;46.982;15.248;2022-09-27T03:06:38;95737.00;;;10.40;100.00
13867;BME280;7003;46.982;15.248;2022-09-27T03:09:13;95737.34;;;10.39;100.00
13867;BME280;7003;46.982;15.248;2022-09-27T03:11:43;95729.78;;;10.41;100.00
13867;BME280;7003;46.982;15.248;2022-09-27T03:14:10;95731.38;;;10.46;100.00
13867;BME280;7003;46.982;15.248;2022-09-27T03:16:41;95723.81;;;10.48;100.00
13867;BME280;7003;46.982;15.248;2022-09-27T03:19:12;95723.09;;;10.51;100.00
13867;BME280;7003;46.982;15.248;2022-09-27T03:21:39;95708.72;;;10.55;100.00
13867;BME280;7003;46.982;15.248;2022-09-27T03:24:06;95700.81;;;10.59;100.00
13867;BME280;7003;46.982;15.248;2022-09-27T03:26:33;95703.47;;;10.59;100.00
13867;BME280;7003;46.982;15.248;2022-09-27T03:29:02;95701.59;;;10.63;100.00
13867;BME280;7003;46.982;15.248;2022-09-27T03:31:29;95695.13;;;10.60;100.00
13867;BME280;7003;46.982;15.248;2022-09-27T03:33:56;95698.09;;;10.55;100.00
13867;BME280;7003;46.982;15.248;2022-09-27T03:36:25;95695.06;;;10.57;100.00
13867;BME280;7003;46.982;15.248;2022-09-27T03:38:52;95685.97;;;10.58;100.00
13867;BME280;7003;46.982;15.248;2022-09-27T03:41:22;95691.88;;;10.44;100.00
13867;BME280;7003;46.982;15.248;2022-09-27T03:43:51;95681.19;;;10.40;100.00
13867;BME280;7003;46.982;15.248;2022-09-27T03:46:23;95686.91;;;10.43;100.00
13867;BME280;7003;46.982;15.248;2022-09-27T03:48:51;95682.78;;;10.75;100.00
13867;BME280;7003;46.982;15.248;2022-09-27T03:51:18;95681.63;;;10.46;100.00
13867;BME280;7003;46.982;15.248;2022-09-27T03:53:46;95671.22;;;10.60;100.00
13867;BME280;7003;46.982;15.248;2022-09-27T03:56:14;95668.41;;;10.50;100.00
13867;BME280;7003;46.982;15.248;2022-09-27T03:58:43;95667.78;;;10.33;100.00
13867;BME280;7003;46.982;15.248;2022-09-27T04:01:10;95668.25;;;10.39;100.00
13867;BME280;7003;46.982;15.248;2022-09-27T04:03:40;95663.31;;;10.37;100.00
13867;BME280;7003;46.982;15.248;2022-09-27T04:06:07;95662.56;;;10.40;100.00
13867;BME280;7003;46.982;15.248;2022-09-27T04:08:37;95652.34;;;10.43;100.00
13867;BME280;7003;46.982;15.248;2022-09-27T04:11:09;95650.56;;;10.50;100.00
13867;BME280;7003;46.982;15.248;2022-09-27T04:13:37;95643.44;;;10.58;100.00
13867;BME280;7003;46.982;15.248;2022-09-27T04:16:04;95651.06;;;10.59;100.00
13867;BME280;7003;46.982;15.248;2022-09-27T04:18:32;95638.06;;;10.54;100.00
13867;BME280;7003;46.982;15.248;2022-09-27T04:21:02;95644.16;;;10.55;100.00
13867;BME280;7003;46.982;15.248;2022-09-27T04:23:30;95635.88;;;10.60;100.00
13867;BME280;7003;46.982;15.248;2022-09-27T04:25:57;95636.66;;;10.64;100.00
13867;BME280;7003;46.982;15.248;2022-09-27T04:28:25;95627.50;;;10.61;100.00
13867;BME280;7003;46.982;15.248;2022-09-27T04:30:55;95627.56;;;10.65;100.00
13867;BME280;7003;46.982;15.248;2022-09-27T04:33:22;95626.09;;;10.67;100.00
13867;BME280;7003;46.982;15.248;2022-09-27T04:35:51;95624.56;;;10.66;100.00
13867;BME280;7003;46.982;15.248;2022-09-27T04:38:35;95615.47;;;10.71;100.00
13867;BME280;7003;46.982;15.248;2022-09-27T04:41:05;95605.97;;;10.70;100.00
13867;BME280;7003;46.982;15.248;2022-09-27T04:43:34;95607.84;;;10.66;100.00
13867;BME280;7003;46.982;15.248;2022-09-27T04:46:02;95598.31;;;10.65;100.00
13867;BME280;7003;46.982;15.248;2022-09-27T04:48:29;95600.28;;;10.68;100.00
13867;BME280;7003;46.982;15.248;2022-09-27T04:51:00;95592.66;;;10.70;100.00
13867;BME280;7003;46.982;15.248;2022-09-27T04:53:29;95591.53;;;10.71;100.00
13867;BME280;7003;46.982;15.248;2022-09-27T04:55:59;95580.56;;;10.72;100.00
13867;BME280;7003;46.982;15.248;2022-09-27T04:58:37;95582.03;;;10.70;100.00
13867;BME280;7003;46.982;15.248;2022-09-27T05:01:07;95582.00;;;10.66;100.00
13867;BME280;7003;46.982;15.248;2022-09-27T05:03:36;95581.72;;;10.75;100.00
13867;BME280;7003;46.982;15.248;2022-09-27T05:06:05;95591.53;;;10.71;100.00
13867;BME280;7003;46.982;15.248;2022-09-27T05:08:35;95584.31;;;10.68;100.00
13867;BME280;7003;46.982;15.248;2022-09-27T05:11:04;95583.53;;;10.67;100.00
13867;BME280;7003;46.982;15.248;2022-09-27T05:13:35;95576.34;;;10.71;100.00
13867;BME280;7003;46.982;15.248;2022-09-27T05:16:05;95584.59;;;10.59;100.00
13867;BME280;7003;46.982;15.248;2022-09-27T05:18:37;95581.16;;;10.59;100.00
13867;BME280;7003;46.982;15.248;2022-09-27T05:21:07;95591.88;;;10.66;100.00
13867;BME280;7003;46.982;15.248;2022-09-27T05:23:38;95588.88;;;10.67;100.00
13867;BME280;7003;46.982;15.248;2022-09-27T05:26:07;95588.41;;;10.62;100.00
13867;BME280;7003;46.982;15.248;2022-09-27T05:28:36;95587.69;;;10.65;100.00
13867;BME280;7003;46.982;15.248;2022-09-27T05:31:10;95585.44;;;10.67;100.00
13867;BME280;7003;46.982;15.248;2022-09-27T05:33:43;95589.56;;;10.64;100.00
13867;BME280;7003;46.982;15.248;2022-09-27T05:36:13;95575.09;;;10.62;100.00
13867;BME280;7003;46.982;15.248;2022-09-27T05:38:41;95573.69;;;10.71;100.00
13867;BME280;7003;46.982;15.248;2022-09-27T05:41:13;95587.34;;;10.70;100.00
13867;BME280;7003;46.982;15.248;2022-09-27T05:43:42;95575.94;;;10.66;100.00
13867;BME280;7003;46.982;15.248;2022-09-27T05:46:12;95579.78;;;10.72;100.00
13867;BME280;7003;46.982;15.248;2022-09-27T05:48:39;95577.94;;;10.76;100.00
13867;BME280;7003;46.982;15.248;2022-09-27T05:51:08;95576.78;;;10.73;100.00
13867;BME280;7003;46.982;15.248;2022-09-27T05:53:39;95567.63;;;10.71;100.00
13867;BME280;7003;46.982;15.248;2022-09-27T05:56:08;95562.72;;;10.76;100.00
13867;BME280;7003;46.982;15.248;2022-09-27T05:58:38;95570.47;;;10.89;100.00
13867;BME280;7003;46.982;15.248;2022-09-27T06:01:08;95563.56;;;10.84;100.00
13867;BME280;7003;46.982;15.248;2022-09-27T06:03:35;95566.22;;;10.84;100.00
13867;BME280;7003;46.982;15.248;2022-09-27T06:06:09;95558.59;;;10.79;100.00
13867;BME280;7003;46.982;15.248;2022-09-27T06:08:39;95565.38;;;10.76;100.00
13867;BME280;7003;46.982;15.248;2022-09-27T06:11:11;95552.84;;;10.77;100.00
13867;BME280;7003;46.982;15.248;2022-09-27T06:13:43;95548.66;;;10.72;100.00
13867;BME280;7003;46.982;15.248;2022-09-27T06:16:12;95560.47;;;10.78;100.00
13867;BME280;7003;46.982;15.248;2022-09-27T06:18:43;95562.13;;;10.90;100.00
13867;BME280;7003;46.982;15.248;2022-09-27T06:21:11;95548.09;;;10.93;100.00
13867;BME280;7003;46.982;15.248;2022-09-27T06:23:42;95555.06;;;11.08;100.00
13867;BME280;7003;46.982;15.248;2022-09-27T06:26:10;95550.81;;;11.00;100.00
13867;BME280;7003;46.982;15.248;2022-09-27T06:28:42;95552.81;;;11.07;100.00
13867;BME280;7003;46.982;15.248;2022-09-27T06:31:14;95548.22;;;11.07;100.00
13867;BME280;7003;46.982;15.248;2022-09-27T06:33:45;95557.34;;;11.06;100.00
13867;BME280;7003;46.982;15.248;2022-09-27T06:36:15;95556.59;;;11.09;100.00
13867;BME280;7003;46.982;15.248;2022-09-27T06:38:45;95554.75;;;11.13;100.00
13867;BME280;7003;46.982;15.248;2022-09-27T06:41:14;95556.25;;;11.11;100.00
13867;BME280;7003;46.982;15.248;2022-09-27T06:43:47;95558.25;;;11.21;100.00
13867;BME280;7003;46.982;15.248;2022-09-27T06:46:16;95548.53;;;11.43;100.00
13867;BME280;7003;46.982;15.248;2022-09-27T06:48:46;95541.56;;;11.28;100.00
13867;BME280;7003;46.982;15.248;2022-09-27T06:51:14;95543.72;;;11.15;100.00
13867;BME280;7003;46.982;15.248;2022-09-27T06:53:44;95550.56;;;11.12;100.00
13867;BME280;7003;46.982;15.248;2022-09-27T06:56:14;95542.53;;;11.05;100.00
13867;BME280;7003;46.982;15.248;2022-09-27T06:58:44;95544.50;;;11.15;100.00
13867;BME280;7003;46.982;15.248;2022-09-27T07:01:31;95548.03;;;11.27;100.00
13867;BME280;7003;46.982;15.248;2022-09-27T07:03:59;95555.28;;;11.30;100.00
13867;BME280;7003;46.982;15.248;2022-09-27T07:06:26;95550.44;;;11.46;100.00
13867;BME280;7003;46.982;15.248;2022-09-27T07:08:56;95554.28;;;11.45;100.00
13867;BME280;7003;46.982;15.248;2022-09-27T07:11:26;95552.44;;;11.56;100.00
13867;BME280;7003;46.982;15.248;2022-09-27T07:13:56;95553.88;;;11.46;100.00
13867;BME280;7003;46.982;15.248;2022-09-27T07:16:27;95553.91;;;11.50;100.00
13867;BME280;7003;46.982;15.248;2022-09-27T07:18:57;95559.19;;;11.43;100.00
13867;BME280;7003;46.982;15.248;2022-09-27T07:21:26;95557.03;;;11.59;100.00
13867;BME280;7003;46.982;15.248;2022-09-27T07:23:54;95570.53;;;11.77;100.00
13867;BME280;7003;46.982;15.248;2022-09-27T07:26:24;95572.41;;;11.76;100.00
13867;BME280;7003;46.982;15.248;2022-09-27T07:28:52;95574.69;;;11.74;100.00
13867;BME280;7003;46.982;15.248;2022-09-27T07:31:23;95585.25;;;11.71;100.00
13867;BME280;7003;46.982;15.248;2022-09-27T07:33:51;95592.13;;;11.68;100.00
13867;BME280;7003;46.982;15.248;2022-09-27T07:36:20;95588.41;;;11.76;100.00
13867;BME280;7003;46.982;15.248;2022-09-27T07:38:48;95580.19;;;11.99;100.00
13867;BME280;7003;46.982;15.248;2022-09-27T07:41:16;95596.06;;;11.85;100.00
13867;BME280;7003;46.982;15.248;2022-09-27T07:43:44;95587.69;;;11.83;100.00
13867;BME280;7003;46.982;15.248;2022-09-27T07:46:13;95589.59;;;11.82;100.00
13867;BME280;7003;46.982;15.248;2022-09-27T07:48:41;95591.13;;;11.87;100.00
13867;BME280;7003;46.982;15.248;2022-09-27T07:51:12;95592.34;;;11.97;100.00
13867;BME280;7003;46.982;15.248;2022-09-27T07:53:41;95599.56;;;11.96;100.00
13867;BME280;7003;46.982;15.248;2022-09-27T07:56:10;95593.22;;;12.15;100.00
13867;BME280;7003;46.982;15.248;2022-09-27T07:58:40;95594.41;;;12.21;100.00
13867;BME280;7003;46.982;15.248;2022-09-27T08:01:08;95597.09;;;12.31;100.00
13867;BME280;7003;46.982;15.248;2022-09-27T08:03:38;95605.97;;;12.46;100.00
13867;BME280;7003;46.982;15.248;2022-09-27T08:06:06;95603.00;;;12.62;100.00
13867;BME280;7003;46.982;15.248;2022-09-27T08:08:36;95606.38;;;12.52;100.00
13867;BME280;7003;46.982;15.248;2022-09-27T08:11:12;95605.97;;;12.50;100.00
13867;BME280;7003;46.982;15.248;2022-09-27T08:13:44;95603.34;;;12.64;100.00
13867;BME280;7003;46.982;15.248;2022-09-27T08:16:15;95606.41;;;12.62;100.00
13867;BME280;7003;46.982;15.248;2022-09-27T08:18:43;95607.50;;;12.54;100.00
13867;BME280;7003;46.982;15.248;2022-09-27T08:21:13;95607.94;;;12.63;100.00
13867;BME280;7003;46.982;15.248;2022-09-27T08:23:42;95612.91;;;12.68;100.00
13867;BME280;7003;46.982;15.248;2022-09-27T08:26:13;95608.78;;;12.89;100.00
13867;BME280;7003;46.982;15.248;2022-09-27T08:28:45;95615.28;;;12.95;100.00
13867;BME280;7003;46.982;15.248;2022-09-27T08:31:13;95609.63;;;13.07;100.00
13867;BME280;7003;46.982;15.248;2022-09-27T08:33:48;95608.38;;;12.80;100.00
13867;BME280;7003;46.982;15.248;2022-09-27T08:36:19;95611.84;;;12.84;100.00
13867;BME280;7003;46.982;15.248;2022-09-27T08:38:50;95608.06;;;12.92;100.00
13867;BME280;7003;46.982;15.248;2022-09-27T08:41:27;95613.41;;;12.99;100.00
13867;BME280;7003;46.982;15.248;2022-09-27T08:44:06;95611.50;;;12.92;100.00
13867;BME280;7003;46.982;15.248;2022-09-27T08:46:43;95604.28;;;13.00;100.00
13867;BME280;7003;46.982;15.248;2022-09-27T08:49:18;95605.34;;;12.88;100.00
13867;BME280;7003;46.982;15.248;2022-09-27T08:51:50;95606.50;;;12.87;100.00
13867;BME280;7003;46.982;15.248;2022-09-27T08:54:21;95613.38;;;12.92;100.00
13867;BME280;7003;46.982;15.248;2022-09-27T08:56:52;95622.47;;;12.77;100.00
13867;BME280;7003;46.982;15.248;2022-09-27T08:59:27;95616.31;;;12.65;100.00
13867;BME280;7003;46.982;15.248;2022-09-27T09:01:57;95617.47;;;12.64;100.00
13867;BME280;7003;46.982;15.248;2022-09-27T09:04:36;95618.66;;;12.78;100.00
13867;BME280;7003;46.982;15.248;2022-09-27T09:07:15;95618.69;;;12.88;100.00
13867;BME280;7003;46.982;15.248;2022-09-27T09:09:52;95616.78;;;12.82;100.00
13867;BME280;7003;46.982;15.248;2022-09-27T09:12:35;95618.72;;;12.92;100.00
13867;BME280;7003;46.982;15.248;2022-09-27T09:15:21;95611.06;;;12.87;100.00
13867;BME280;7003;46.982;15.248;2022-09-27T09:18:11;95613.75;;;12.94;100.00
13867;BME280;7003;46.982;15.248;2022-09-27T09:20:54;95614.88;;;12.86;100.00
13867;BME280;7003;46.982;15.248;2022-09-27T09:23:41;95616.44;;;12.90;100.00
13867;BME280;7003;46.982;15.248;2022-09-27T09:26:25;95620.63;;;12.91;100.00
13867;BME280;7003;46.982;15.248;2022-09-27T09:29:15;95630.88;;;12.82;100.00
13867;BME280;7003;46.982;15.248;2022-09-27T09:31:48;95623.28;;;12.91;100.00
13867;BME280;7003;46.982;15.248;2022-09-27T09:34:21;95624.16;;;13.13;100.00
13867;BME280;7003;46.982;15.248;2022-09-27T09:36:54;95618.38;;;13.04;100.00
13867;BME280;7003;46.982;15.248;2022-09-27T09:39:32;95619.44;;;12.82;100.00
13867;BME280;7003;46.982;15.248;2022-09-27T09:42:08;95615.59;;;12.68;100.00
13867;BME280;7003;46.982;15.248;2022-09-27T09:44:45;95617.16;;;12.87;100.00
13867;BME280;7003;46.982;15.248;2022-09-27T09:47:20;95623.66;;;12.83;100.00
13867;BME280;7003;46.982;15.248;2022-09-27T09:49:53;95635.81;;;12.80;100.00
13867;BME280;7003;46.982;15.248;2022-09-27T09:52:28;95642.31;;;12.83;100.00
13867;BME280;7003;46.982;15.248;2022-09-27T09:55:05;95645.75;;;12.83;100.00
13867;BME280;7003;46.982;15.248;2022-09-27T09:57:41;95649.16;;;12.80;100.00
13867;BME280;7003;46.982;15.248;2022-09-27T10:00:15;95649.97;;;12.84;100.00
13867;BME280;7003;46.982;15.248;2022-09-27T10:02:54;95648.41;;;12.76;100.00
13867;BME280;7003;46.982;15.248;2022-09-27T10:05:26;95654.91;;;12.82;100.00
13867;BME280;7003;46.982;15.248;2022-09-27T10:07:57;95645.28;;;12.63;100.00
13867;BME280;7003;46.982;15.248;2022-09-27T10:10:26;95652.63;;;12.84;100.00
13867;BME280;7003;46.982;15.248;2022-09-27T10:12:57;95644.56;;;12.73;100.00
13867;BME280;7003;46.982;15.248;2022-09-27T10:15:29;95646.47;;;12.73;100.00
13867;BME280;7003;46.982;15.248;2022-09-27T10:17:58;95641.59;;;12.89;100.00
13867;BME280;7003;46.982;15.248;2022-09-27T10:20:30;95638.53;;;12.94;100.00
13867;BME280;7003;46.982;15.248;2022-09-27T10:23:04;95638.16;;;12.89;100.00
13867;BME280;7003;46.982;15.248;2022-09-27T10:25:45;95646.91;;;12.89;100.00
13867;BME280;7003;46.982;15.248;2022-09-27T10:28:30;95646.16;;;12.89;100.00
13867;BME280;7003;46.982;15.248;2022-09-27T10:31:04;95646.16;;;12.89;100.00
13867;BME280;7003;46.982;15.248;2022-09-27T10:33:38;95659.53;;;12.96;100.00
13867;BME280;7003;46.982;15.248;2022-09-27T10:36:23;95659.13;;;12.90;100.00
13867;BME280;7003;46.982;15.248;2022-09-27T10:39:20;95655.72;;;12.97;100.00
13867;BME280;7003;46.982;15.248;2022-09-27T10:41:51;95655.72;;;12.97;100.00
13867;BME280;7003;46.982;15.248;2022-09-27T10:44:24;95653.41;;;12.88;100.00
13867;BME280;7003;46.982;15.248;2022-09-27T10:46:55;95664.09;;;12.92;100.00
13867;BME280;7003;46.982;15.248;2022-09-27T10:49:27;95665.63;;;12.93;100.00
13867;BME280;7003;46.982;15.248;2022-09-27T10:51:57;95661.81;;;12.97;100.00
13867;BME280;7003;46.982;15.248;2022-09-27T10:54:28;95657.63;;;12.96;100.00
13867;BME280;7003;46.982;15.248;2022-09-27T10:56:58;95661.44;;;12.99;100.00
13867;BME280;7003;46.982;15.248;2022-09-27T10:59:28;95667.53;;;12.96;100.00
13867;BME280;7003;46.982;15.248;2022-09-27T11:02:01;95669.81;;;13.01;100.00
13867;BME280;7003;46.982;15.248;2022-09-27T11:04:32;95664.59;;;13.22;100.00
13867;BME280;7003;46.982;15.248;2022-09-27T11:07:12;95670.63;;;13.08;100.00
13867;BME280;7003;46.982;15.248;2022-09-27T11:09:47;95673.25;;;12.91;100.00
13867;BME280;7003;46.982;15.248;2022-09-27T11:12:17;95678.31;;;13.14;100.00
13867;BME280;7003;46.982;15.248;2022-09-27T11:14:53;95664.59;;;13.22;100.00
13867;BME280;7003;46.982;15.248;2022-09-27T11:17:34;95662.16;;;12.89;100.00
13867;BME280;7003;46.982;15.248;2022-09-27T11:20:14;95664.06;;;12.85;100.00
13867;BME280;7003;46.982;15.248;2022-09-27T11:23:14;95657.13;;;12.73;100.00
13867;BME280;7003;46.982;15.248;2022-09-27T11:25:59;95654.13;;;12.82;100.00
13867;BME280;7003;46.982;15.248;2022-09-27T11:28:37;95645.34;;;12.78;100.00
13867;BME280;7003;46.982;15.248;2022-09-27T11:31:17;95645.72;;;12.76;100.00
13867;BME280;7003;46.982;15.248;2022-09-27T11:34:15;95625.94;;;12.88;100.00
13867;BME280;7003;46.982;15.248;2022-09-27T11:37:06;95624.44;;;12.90;100.00
13867;BME280;7003;46.982;15.248;2022-09-27T11:39:48;95615.63;;;12.83;100.00
13867;BME280;7003;46.982;15.248;2022-09-27T11:42:48;95613.41;;;12.99;100.00
13867;BME280;7003;46.982;15.248;2022-09-27T11:45:28;95605.38;;;12.85;100.00
13867;BME280;7003;46.982;15.248;2022-09-27T11:48:07;95600.41;;;12.94;100.00
13867;BME280;7003;46.982;15.248;2022-09-27T11:51:07;95606.88;;;12.86;100.00
13867;BME280;7003;46.982;15.248;2022-09-27T11:53:53;95594.31;;;12.90;100.00
13867;BME280;7003;46.982;15.248;2022-09-27T11:56:33;95588.16;;;12.79;100.00
13867;BME280;7003;46.982;15.248;2022-09-27T11:59:36;95597.31;;;12.78;100.00
13867;BME280;7003;46.982;15.248;2022-09-27T12:05:32;95607.50;;;12.54;100.00
13867;BME280;7003;46.982;15.248;2022-09-27T12:08:20;95601.38;;;12.47;100.00
13867;BME280;7003;46.982;15.248;2022-09-27T12:10:57;95605.56;;;12.48;100.00
13867;BME280;7003;46.982;15.248;2022-09-27T12:13:32;95610.91;;;12.48;100.00
13867;BME280;7003;46.982;15.248;2022-09-27T12:16:01;95614.66;;;12.40;100.00
13867;BME280;7003;46.982;15.248;2022-09-27T12:18:35;95614.31;;;12.41;100.00
13867;BME280;7003;46.982;15.248;2022-09-27T12:21:06;95610.91;;;12.44;100.00
13867;BME280;7003;46.982;15.248;2022-09-27T12:23:41;95613.56;;;12.48;100.00
13867;BME280;7003;46.982;15.248;2022-09-27T12:26:16;95614.69;;;12.43;100.00
13867;BME280;7003;46.982;15.248;2022-09-27T12:28:50;95602.59;;;12.60;100.00
13867;BME280;7003;46.982;15.248;2022-09-27T12:31:28;95607.13;;;12.56;100.00
13867;BME280;7003;46.982;15.248;2022-09-27T12:34:06;95603.66;;;12.48;100.00
13867;BME280;7003;46.982;15.248;2022-09-27T12:36:40;95603.34;;;12.57;100.00
13867;BME280;7003;46.982;15.248;2022-09-27T12:39:18;95616.69;;;12.60;100.00
13867;BME280;7003;46.982;15.248;2022-09-27T12:41:52;95613.63;;;12.58;100.00
13867;BME280;7003;46.982;15.248;2022-09-27T12:44:35;95620.09;;;12.54;100.00
13867;BME280;7003;46.982;15.248;2022-09-27T12:47:07;95623.13;;;12.56;100.00
13867;BME280;7003;46.982;15.248;2022-09-27T12:49:48;95623.56;;;12.61;100.00
13867;BME280;7003;46.982;15.248;2022-09-27T12:52:26;95630.81;;;12.64;100.00
13867;BME280;7003;46.982;15.248;2022-09-27T13:01:17;95631.31;;;12.95;100.00
13867;BME280;7003;46.982;15.248;2022-09-27T13:04:05;95624.88;;;13.10;100.00
13867;BME280;7003;46.982;15.248;2022-09-27T13:06:47;95630.97;;;13.00;100.00
13867;BME280;7003;46.982;15.248;2022-09-27T13:09:43;95635.84;;;12.84;100.00
13867;BME280;7003;46.982;15.248;2022-09-27T13:12:16;95630.16;;;12.96;100.00
13867;BME280;7003;46.982;15.248;2022-09-27T13:14:58;95633.59;;;12.93;100.00
13867;BME280;7003;46.982;15.248;2022-09-27T13:17:46;95629.81;;;13.04;100.00
13867;BME280;7003;46.982;15.248;2022-09-27T13:20:38;95623.31;;;12.98;100.00
13867;BME280;7003;46.982;15.248;2022-09-27T13:29:25;95636.81;;;13.37;100.00
13867;BME280;7003;46.982;15.248;2022-09-27T13:32:20;95636.78;;;13.23;100.00
13867;BME280;7003;46.982;15.248;2022-09-27T13:34:50;95637.94;;;13.29;100.00
13867;BME280;7003;46.982;15.248;2022-09-27T13:40:29;95639.88;;;13.39;100.00
13867;BME280;7003;46.982;15.248;2022-09-27T13:46:19;95648.63;;;13.43;100.00